Time;durP1;ratioP1;P1;durP2;ratioP2;P2;SDS_P1;SDS_P2;PMS_P1;PMS_P2;Temp;Humidity;BMP_temperature;BMP_pressure;BME280_temperature;BME280_humidity;BME280_pressure;Samples;Min_cycle;Max_cycle;Signal;HPM_P1;HPM_P2
2022/03/23 00:01:24;;;;;;;55.88;25.73;;;6.10;99.90;;;;;;5048321;28;20037;-69
2022/03/23 00:03:50;;;;;;;56.17;26.65;;;6.00;99.90;;;;;;5046749;28;20029;-68
2022/03/23 00:06:17;;;;;;;57.30;26.73;;;6.00;99.90;;;;;;5064397;28;20499;-68
2022/03/23 00:08:43;;;;;;;56.88;26.42;;;5.90;99.90;;;;;;5045663;28;20132;-69
2022/03/23 00:11:09;;;;;;;62.78;29.08;;;5.80;99.90;;;;;;5052281;28;20483;-69
2022/03/23 00:13:34;;;;;;;64.95;30.42;;;5.80;99.90;;;;;;5051168;28;20041;-69
2022/03/23 00:16:01;;;;;;;74.30;32.67;;;5.80;99.90;;;;;;5042320;28;20041;-69
2022/03/23 00:18:26;;;;;;;76.93;33.92;;;5.80;99.90;;;;;;5041945;28;20060;-69
2022/03/23 00:20:52;;;;;;;75.93;33.13;;;5.80;99.90;;;;;;5047202;28;20704;-69
2022/03/23 00:23:17;;;;;;;67.88;30.50;;;5.80;99.90;;;;;;5048238;28;20132;-69
2022/03/23 00:25:43;;;;;;;73.72;32.25;;;5.70;99.90;;;;;;5042149;28;20038;-69
2022/03/23 00:28:09;;;;;;;69.95;30.40;;;5.70;99.90;;;;;;5057139;28;20033;-69
2022/03/23 00:30:35;;;;;;;61.00;29.58;;;5.70;99.90;;;;;;5047921;28;20045;-69
2022/03/23 00:33:05;;;;;;;64.95;29.27;;;5.60;99.90;;;;;;5047958;28;20086;-69
2022/03/23 00:35:30;;;;;;;61.53;29.33;;;5.60;99.90;;;;;;5046888;28;20048;-69
2022/03/23 00:38:00;;;;;;;58.28;27.92;;;5.50;99.90;;;;;;5048347;28;20045;-69
2022/03/23 00:40:28;;;;;;;67.85;29.50;;;5.40;99.90;;;;;;5047162;28;20506;-69
2022/03/23 00:42:54;;;;;;;61.63;28.67;;;5.40;99.90;;;;;;5044837;28;20052;-69
2022/03/23 00:45:20;;;;;;;70.18;33.05;;;5.30;99.90;;;;;;5043673;28;20041;-69
2022/03/23 00:47:48;;;;;;;79.35;34.05;;;5.30;99.90;;;;;;5022368;28;20029;-69
2022/03/23 00:50:14;;;;;;;80.93;35.05;;;5.30;99.90;;;;;;5050459;28;20037;-69
2022/03/23 00:52:40;;;;;;;79.20;33.92;;;5.30;99.90;;;;;;5034699;28;20045;-69
2022/03/23 00:55:09;;;;;;;78.00;33.90;;;5.40;99.90;;;;;;5049664;28;20415;-69
2022/03/23 00:57:38;;;;;;;82.10;35.60;;;5.40;99.90;;;;;;5048397;28;20127;-69
2022/03/23 01:00:06;;;;;;;91.10;37.83;;;5.40;99.90;;;;;;5046862;28;20503;-69
2022/03/23 01:02:34;;;;;;;87.45;36.22;;;5.40;99.90;;;;;;5062993;28;20045;-69
2022/03/23 01:05:00;;;;;;;77.05;35.03;;;5.40;99.90;;;;;;5054334;28;20037;-69
2022/03/23 01:07:25;;;;;;;70.15;32.28;;;5.40;99.90;;;;;;5059978;28;20048;-69
2022/03/23 01:09:51;;;;;;;68.05;30.83;;;5.40;99.90;;;;;;5040567;28;20119;-69
2022/03/23 01:12:16;;;;;;;76.00;34.45;;;5.40;99.90;;;;;;5042475;28;20488;-69
2022/03/23 01:14:42;;;;;;;84.90;36.30;;;5.40;99.90;;;;;;5045604;28;20041;-69
2022/03/23 01:17:08;;;;;;;83.28;35.92;;;5.30;99.90;;;;;;5047863;28;20045;-69
2022/03/23 01:19:33;;;;;;;89.10;35.92;;;5.40;99.90;;;;;;5051252;28;20064;-69
2022/03/23 01:21:59;;;;;;;89.82;37.25;;;5.30;99.90;;;;;;5051026;28;20033;-69
2022/03/23 01:24:24;;;;;;;90.10;36.72;;;5.40;99.90;;;;;;5050949;28;20143;-68
2022/03/23 01:26:50;;;;;;;79.43;34.97;;;5.40;99.90;;;;;;5053339;28;20040;-69
2022/03/23 01:29:15;;;;;;;80.93;35.08;;;5.30;99.90;;;;;;5043892;28;20051;-69
2022/03/23 01:31:41;;;;;;;79.68;34.25;;;5.30;99.90;;;;;;5050394;28;20041;-69
2022/03/23 01:34:07;;;;;;;85.38;34.78;;;5.20;99.90;;;;;;5045116;28;20551;-69
2022/03/23 01:36:33;;;;;;;77.47;32.00;;;5.20;99.90;;;;;;5048384;28;20045;-69
2022/03/23 01:38:58;;;;;;;61.80;28.27;;;5.20;99.90;;;;;;5047593;28;20107;-69
2022/03/23 01:41:25;;;;;;;57.17;27.00;;;5.20;99.90;;;;;;5061528;28;20040;-69
2022/03/23 01:43:51;;;;;;;67.32;30.38;;;5.10;99.90;;;;;;5046535;28;20392;-69
2022/03/23 01:46:18;;;;;;;67.03;31.35;;;5.00;99.90;;;;;;5049960;28;20048;-69
2022/03/23 01:48:44;;;;;;;48.97;23.42;;;4.90;99.90;;;;;;5050058;28;20044;-69
2022/03/23 01:51:11;;;;;;;55.38;25.13;;;4.80;99.90;;;;;;5051282;28;20399;-69
2022/03/23 01:53:37;;;;;;;80.32;33.60;;;4.70;99.90;;;;;;5050736;28;20464;-69
2022/03/23 01:56:03;;;;;;;71.22;31.63;;;4.70;99.90;;;;;;5049815;28;20049;-69
2022/03/23 01:58:29;;;;;;;64.25;27.58;;;4.70;99.90;;;;;;5066432;28;20492;-69
2022/03/23 02:00:54;;;;;;;92.80;36.35;;;4.70;99.90;;;;;;5050846;28;20056;-69
2022/03/23 02:03:20;;;;;;;97.28;39.40;;;4.70;99.90;;;;;;5050601;28;20132;-69
2022/03/23 02:05:45;;;;;;;86.50;36.10;;;4.70;99.90;;;;;;5059614;28;20033;-69
2022/03/23 02:08:12;;;;;;;87.03;36.97;;;4.70;99.90;;;;;;5034640;28;20033;-69
2022/03/23 02:10:38;;;;;;;84.57;35.92;;;4.70;99.90;;;;;;5050140;28;20041;-69
2022/03/23 02:13:04;;;;;;;77.60;33.67;;;4.70;99.90;;;;;;5054605;28;20384;-69
2022/03/23 02:15:29;;;;;;;74.18;32.88;;;4.70;99.90;;;;;;5051008;28;20068;-69
2022/03/23 02:17:56;;;;;;;81.40;32.97;;;4.60;99.90;;;;;;5050557;28;20475;-69
2022/03/23 02:20:23;;;;;;;78.40;32.15;;;4.50;99.90;;;;;;5050579;28;20554;-69
2022/03/23 02:22:48;;;;;;;84.68;36.10;;;4.50;99.90;;;;;;5050327;28;20072;-69
2022/03/23 02:25:23;;;;;;;84.63;35.80;;;4.40;99.90;;;;;;5049045;28;20518;-69
2022/03/23 02:27:50;;;;;;;71.80;29.50;;;4.50;99.90;;;;;;5052829;28;20098;-69
2022/03/23 02:30:16;;;;;;;91.97;35.85;;;4.40;99.90;;;;;;5049549;28;20123;-69
2022/03/23 02:32:41;;;;;;;82.75;35.03;;;4.40;99.90;;;;;;5066791;28;20563;-69
2022/03/23 02:35:08;;;;;;;83.60;34.50;;;4.40;99.90;;;;;;5050303;28;20110;-69
2022/03/23 02:37:35;;;;;;;82.45;34.95;;;4.40;99.90;;;;;;5048649;28;20048;-69
2022/03/23 02:40:01;;;;;;;86.45;36.92;;;4.40;99.90;;;;;;5059305;28;20110;-69
2022/03/23 02:42:27;;;;;;;94.03;35.55;;;4.40;99.90;;;;;;5050118;28;20041;-69
2022/03/23 02:44:52;;;;;;;85.97;35.10;;;4.40;99.90;;;;;;5047311;28;20407;-69
2022/03/23 02:47:18;;;;;;;84.53;33.80;;;4.40;99.90;;;;;;5050393;28;20116;-69
2022/03/23 02:49:44;;;;;;;77.82;30.45;;;4.40;99.90;;;;;;5049356;28;20028;-69
2022/03/23 02:52:09;;;;;;;77.22;31.63;;;4.40;99.90;;;;;;5052597;28;20064;-69
2022/03/23 03:03:07;;;;;;;75.65;31.45;;;4.10;99.90;;;;;;5051783;28;20056;-69
2022/03/23 03:05:33;;;;;;;78.40;32.10;;;4.10;99.90;;;;;;5056268;28;20045;-69
2022/03/23 03:10:42;;;;;;;85.80;34.45;;;4.10;99.90;;;;;;5059384;28;20407;-69
2022/03/23 03:13:08;;;;;;;76.68;31.15;;;4.00;99.90;;;;;;5031782;28;20029;-69
2022/03/23 03:15:34;;;;;;;75.00;31.90;;;4.00;99.90;;;;;;5037568;28;20038;-69
2022/03/23 03:18:00;;;;;;;76.18;33.53;;;4.00;99.90;;;;;;5048982;28;20029;-69
2022/03/23 03:20:27;;;;;;;70.53;31.10;;;4.00;99.90;;;;;;5049006;28;20045;-69
2022/03/23 03:22:52;;;;;;;79.72;34.20;;;4.00;99.90;;;;;;5049389;28;20037;-69
2022/03/23 03:25:20;;;;;;;94.82;34.70;;;3.90;99.90;;;;;;5049469;28;20041;-69
2022/03/23 03:27:46;;;;;;;95.78;37.60;;;3.90;99.90;;;;;;5045041;28;20090;-69
2022/03/23 03:30:14;;;;;;;90.47;36.50;;;3.90;99.90;;;;;;5062142;28;20121;-69
2022/03/23 03:32:40;;;;;;;94.38;37.63;;;3.90;99.90;;;;;;5048619;28;20108;-69
2022/03/23 03:35:07;;;;;;;90.40;35.03;;;3.90;99.90;;;;;;5049794;28;20120;-69
2022/03/23 03:37:33;;;;;;;88.93;36.95;;;3.90;99.90;;;;;;5048849;28;20490;-69
2022/03/23 03:39:59;;;;;;;92.30;38.55;;;3.90;99.90;;;;;;5049147;28;20124;-69
2022/03/23 03:42:26;;;;;;;91.65;36.45;;;3.90;99.90;;;;;;5047472;28;20136;-69
2022/03/23 03:44:51;;;;;;;83.40;34.38;;;3.90;99.90;;;;;;5054565;28;20041;-69
2022/03/23 03:47:19;;;;;;;67.75;30.45;;;3.90;99.90;;;;;;5032293;28;20052;-69
2022/03/23 03:49:45;;;;;;;71.13;29.88;;;3.90;99.90;;;;;;5057734;28;20503;-69
2022/03/23 03:52:11;;;;;;;68.60;29.75;;;3.80;99.90;;;;;;5054940;28;20425;-69
2022/03/23 03:54:36;;;;;;;87.75;33.25;;;3.80;99.90;;;;;;5048752;28;20122;-69
2022/03/23 03:57:03;;;;;;;80.88;33.42;;;3.70;99.90;;;;;;5047615;28;20721;-69
2022/03/23 03:59:28;;;;;;;78.72;31.85;;;3.70;99.90;;;;;;5048490;28;20042;-69
2022/03/23 04:01:54;;;;;;;90.35;34.50;;;3.70;99.90;;;;;;5046801;28;20052;-69
2022/03/23 04:04:19;;;;;;;92.03;37.33;;;3.70;99.90;;;;;;5048434;28;20041;-69
2022/03/23 04:06:45;;;;;;;90.97;36.17;;;3.70;99.90;;;;;;5047131;28;20044;-69
2022/03/23 04:09:10;;;;;;;94.03;38.05;;;3.70;99.90;;;;;;5052367;28;20043;-69
2022/03/23 04:11:36;;;;;;;100.20;39.25;;;3.80;99.90;;;;;;5053571;28;20058;-69
2022/03/23 04:14:02;;;;;;;96.80;37.13;;;3.80;99.90;;;;;;5046574;28;20045;-69
2022/03/23 04:16:28;;;;;;;95.72;37.50;;;3.90;99.90;;;;;;5060284;28;20052;-69
2022/03/23 04:18:53;;;;;;;88.75;34.78;;;3.90;99.90;;;;;;5048429;28;20048;-69
2022/03/23 04:21:19;;;;;;;90.90;35.13;;;3.80;99.90;;;;;;5063054;28;20436;-69
2022/03/23 04:23:45;;;;;;;91.88;35.97;;;3.80;99.90;;;;;;5048653;28;20048;-69
2022/03/23 04:26:10;;;;;;;84.43;33.28;;;3.80;99.90;;;;;;5048652;28;20117;-69
2022/03/23 04:28:36;;;;;;;84.53;32.58;;;3.80;99.90;;;;;;5048350;28;20090;-69
2022/03/23 04:31:02;;;;;;;85.13;34.88;;;3.70;99.90;;;;;;5042768;28;20045;-69
2022/03/23 04:33:28;;;;;;;85.25;34.25;;;3.70;99.90;;;;;;5044521;28;20056;-69
2022/03/23 04:35:53;;;;;;;77.75;31.30;;;3.60;99.90;;;;;;5048752;28;20053;-69
2022/03/23 04:38:20;;;;;;;77.00;30.38;;;3.60;99.90;;;;;;5048632;28;20116;-69
2022/03/23 04:40:46;;;;;;;77.70;31.77;;;3.50;99.90;;;;;;5047882;28;20391;-69
2022/03/23 04:43:11;;;;;;;77.82;30.50;;;3.40;99.90;;;;;;5031536;28;20041;-69
2022/03/23 04:45:37;;;;;;;79.43;31.27;;;3.30;99.90;;;;;;5048881;28;20048;-69
2022/03/23 04:48:03;;;;;;;75.57;30.42;;;3.30;99.90;;;;;;5047721;28;20028;-69
2022/03/23 04:50:29;;;;;;;81.75;33.13;;;3.20;99.90;;;;;;5045878;28;20178;-70
2022/03/23 04:52:55;;;;;;;80.70;32.83;;;3.20;99.90;;;;;;5048261;28;20201;-69
2022/03/23 04:55:20;;;;;;;73.10;31.15;;;3.20;99.90;;;;;;5048309;28;20037;-69
2022/03/23 04:57:46;;;;;;;66.32;28.40;;;3.20;99.90;;;;;;5047245;28;20264;-69
2022/03/23 05:00:15;;;;;;;73.20;29.30;;;3.20;99.90;;;;;;5047371;28;20041;-69
2022/03/23 05:02:42;;;;;;;74.20;29.60;;;3.20;99.90;;;;;;5046632;28;20126;-69
2022/03/23 05:05:09;;;;;;;85.13;35.03;;;3.10;99.90;;;;;;5050695;28;20403;-69
2022/03/23 05:07:35;;;;;;;85.65;33.28;;;3.10;99.90;;;;;;5064296;28;20088;-70
2022/03/23 05:10:02;;;;;;;87.68;33.85;;;3.10;99.90;;;;;;5048662;28;20048;-69
2022/03/23 05:12:28;;;;;;;80.47;32.45;;;3.10;99.90;;;;;;5053143;28;20036;-69
2022/03/23 05:14:54;;;;;;;84.20;33.33;;;3.00;99.90;;;;;;5047763;28;20492;-69
2022/03/23 05:17:19;;;;;;;79.53;32.30;;;3.10;99.90;;;;;;5045694;28;20045;-69
2022/03/23 05:19:45;;;;;;;96.43;36.25;;;3.00;99.90;;;;;;5047353;28;20033;-69
2022/03/23 05:22:12;;;;;;;82.35;34.58;;;3.00;99.90;;;;;;5047828;28;20124;-70
2022/03/23 05:24:39;;;;;;;96.72;35.15;;;3.00;99.90;;;;;;5045751;28;21281;-69
2022/03/23 05:27:06;;;;;;;87.53;35.90;;;3.00;99.90;;;;;;5047456;28;20091;-70
2022/03/23 05:29:32;;;;;;;103.70;38.20;;;3.00;99.90;;;;;;5044832;28;20041;-69
2022/03/23 05:31:57;;;;;;;94.88;35.08;;;3.00;99.90;;;;;;5055329;28;20101;-69
2022/03/23 05:34:23;;;;;;;88.88;35.90;;;3.00;99.90;;;;;;5049387;28;20484;-70
2022/03/23 05:36:48;;;;;;;98.25;37.20;;;3.00;99.90;;;;;;5067021;28;20041;-69
2022/03/23 05:39:14;;;;;;;102.15;37.45;;;2.90;99.90;;;;;;5049976;28;20091;-70
2022/03/23 05:41:40;;;;;;;97.68;36.80;;;3.00;99.90;;;;;;5050793;28;20037;-69
2022/03/23 05:44:05;;;;;;;95.03;36.22;;;2.90;99.90;;;;;;5051246;28;20090;-70
2022/03/23 05:46:31;;;;;;;99.22;37.05;;;2.90;99.90;;;;;;5051108;28;20440;-70
2022/03/23 05:48:56;;;;;;;91.35;36.58;;;3.00;99.90;;;;;;5050115;28;20041;-70
2022/03/23 05:51:23;;;;;;;107.55;37.00;;;3.00;99.90;;;;;;5050975;28;20180;-69
2022/03/23 05:53:49;;;;;;;95.05;33.92;;;3.00;99.90;;;;;;5049250;28;20060;-69
2022/03/23 05:56:14;;;;;;;83.43;33.35;;;3.00;99.90;;;;;;5049009;28;20068;-69
2022/03/23 05:58:40;;;;;;;88.50;34.53;;;2.90;99.90;;;;;;5050093;28;20041;-69
2022/03/23 06:01:06;;;;;;;88.57;33.83;;;2.90;99.90;;;;;;5053234;28;20168;-69
2022/03/23 06:03:31;;;;;;;83.82;32.45;;;3.00;99.90;;;;;;5050584;28;20571;-69
2022/03/23 06:05:58;;;;;;;82.05;32.75;;;3.00;99.90;;;;;;5029647;28;20504;-69
2022/03/23 06:08:23;;;;;;;88.72;33.63;;;3.00;99.90;;;;;;5047652;28;20083;-70
2022/03/23 06:10:49;;;;;;;103.30;39.03;;;3.10;99.90;;;;;;5048635;28;20033;-69
2022/03/23 06:13:15;;;;;;;103.70;39.53;;;3.10;99.90;;;;;;5050117;28;20098;-70
2022/03/23 06:15:41;;;;;;;96.80;37.38;;;3.20;99.90;;;;;;5048090;28;20041;-69
2022/03/23 06:18:07;;;;;;;102.85;39.85;;;3.30;99.90;;;;;;5050220;28;20421;-69
2022/03/23 06:20:32;;;;;;;102.93;38.83;;;3.30;99.90;;;;;;5048846;28;20522;-69
2022/03/23 06:22:58;;;;;;;101.22;37.97;;;3.40;99.90;;;;;;5049464;28;20498;-69
2022/03/23 06:25:26;;;;;;;90.30;36.22;;;3.50;99.90;;;;;;5049894;28;20511;-69
2022/03/23 06:27:52;;;;;;;94.72;36.15;;;3.50;99.90;;;;;;5048392;28;20037;-70
2022/03/23 06:30:17;;;;;;;91.18;34.70;;;3.60;99.90;;;;;;5049448;28;20416;-69
2022/03/23 06:32:43;;;;;;;89.78;35.85;;;3.70;99.90;;;;;;5049225;28;20032;-69
2022/03/23 06:35:09;;;;;;;83.03;33.20;;;3.70;99.90;;;;;;5049680;28;20037;-69
2022/03/23 06:37:34;;;;;;;82.65;31.88;;;3.70;99.90;;;;;;5048721;28;20040;-70
2022/03/23 06:40:01;;;;;;;84.05;31.42;;;3.70;99.90;;;;;;5045725;28;20045;-69
2022/03/23 06:42:27;;;;;;;84.82;33.13;;;3.70;99.90;;;;;;5042641;28;20106;-69
2022/03/23 06:44:53;;;;;;;87.03;33.63;;;3.70;99.90;;;;;;5059651;28;20098;-69
2022/03/23 06:47:19;;;;;;;90.32;35.10;;;3.90;99.90;;;;;;5049655;28;20045;-69
2022/03/23 06:49:44;;;;;;;114.05;40.42;;;3.90;99.90;;;;;;5048628;28;20530;-69
2022/03/23 06:52:10;;;;;;;124.20;42.22;;;4.10;99.90;;;;;;5045440;28;20055;-69
2022/03/23 06:54:36;;;;;;;120.97;42.15;;;4.20;99.90;;;;;;5042310;28;20042;-69
2022/03/23 06:57:01;;;;;;;115.40;41.03;;;4.40;99.90;;;;;;5048208;28;20419;-69
2022/03/23 06:59:27;;;;;;;109.45;40.78;;;4.40;99.90;;;;;;5063736;28;20128;-69
2022/03/23 07:01:52;;;;;;;112.00;39.58;;;4.60;99.90;;;;;;5047220;28;20437;-69
2022/03/23 07:04:18;;;;;;;112.20;41.50;;;4.80;99.90;;;;;;5047089;28;20466;-69
2022/03/23 07:06:44;;;;;;;110.90;42.67;;;4.90;99.90;;;;;;5048464;28;20117;-69
2022/03/23 07:11:54;;;;;;;113.38;43.38;;;5.20;99.90;;;;;;5045514;28;20110;-69
2022/03/23 07:14:20;;;;;;;124.55;45.50;;;5.40;99.90;;;;;;5049318;28;20059;-69
2022/03/23 07:16:45;;;;;;;131.20;46.22;;;5.60;99.90;;;;;;5048814;28;20033;-70
2022/03/23 07:19:12;;;;;;;124.22;46.55;;;5.70;99.90;;;;;;5045839;28;20120;-70
2022/03/23 07:21:38;;;;;;;135.10;47.15;;;5.90;99.90;;;;;;5048320;28;20036;-70
2022/03/23 07:24:03;;;;;;;132.98;47.95;;;6.10;99.90;;;;;;5043383;28;20048;-70
2022/03/23 07:26:29;;;;;;;130.52;47.75;;;6.30;99.90;;;;;;5050102;28;20408;-68
2022/03/23 07:28:54;;;;;;;132.75;48.13;;;6.40;99.90;;;;;;5044613;28;20388;-70
2022/03/23 07:31:20;;;;;;;122.82;47.03;;;6.70;99.90;;;;;;5049072;28;20479;-70
2022/03/23 07:33:45;;;;;;;129.75;48.20;;;6.80;99.90;;;;;;5044049;28;20452;-69
2022/03/23 07:36:12;;;;;;;140.02;50.08;;;7.00;99.90;;;;;;5039682;28;20037;-69
2022/03/23 07:38:38;;;;;;;142.65;51.42;;;7.30;99.90;;;;;;5050460;28;20412;-69
2022/03/23 07:41:04;;;;;;;141.80;51.60;;;7.50;99.90;;;;;;5046042;28;20037;-69
2022/03/23 07:43:30;;;;;;;148.70;51.95;;;7.60;99.90;;;;;;5048593;28;20041;-70
2022/03/23 07:45:55;;;;;;;151.55;52.75;;;7.80;99.90;;;;;;5043842;28;20509;-69
2022/03/23 07:48:22;;;;;;;138.32;49.75;;;8.00;99.90;;;;;;5043748;28;20043;-70
2022/03/23 07:50:48;;;;;;;135.73;49.72;;;8.20;99.90;;;;;;5047539;28;20051;-69
2022/03/23 07:53:14;;;;;;;129.93;48.15;;;8.40;99.90;;;;;;5048353;28;20041;-69
2022/03/23 07:55:40;;;;;;;133.65;48.78;;;8.50;99.90;;;;;;5046931;28;20037;-68
2022/03/23 07:58:06;;;;;;;125.97;47.70;;;8.70;99.90;;;;;;5051752;28;20808;-68
2022/03/23 08:00:32;;;;;;;134.23;50.25;;;8.80;99.90;;;;;;5049016;28;20795;-69
2022/03/23 08:02:57;;;;;;;129.23;48.10;;;9.10;99.90;;;;;;5048735;28;20052;-69
2022/03/23 08:05:24;;;;;;;132.75;51.58;;;9.20;99.90;;;;;;5046339;28;20036;-69
2022/03/23 08:07:50;;;;;;;124.20;47.75;;;9.40;99.90;;;;;;5064219;28;20436;-69
2022/03/23 08:10:15;;;;;;;132.70;46.92;;;9.60;99.90;;;;;;5046379;28;20431;-69
2022/03/23 08:12:41;;;;;;;125.25;47.25;;;9.70;99.90;;;;;;5049350;28;20041;-69
2022/03/23 08:15:07;;;;;;;123.47;47.72;;;9.90;99.90;;;;;;5056552;28;20123;-69
2022/03/23 08:17:33;;;;;;;121.20;47.83;;;10.00;99.90;;;;;;5047948;28;20037;-69
2022/03/23 08:22:42;;;;;;;123.30;47.65;;;10.30;99.90;;;;;;5046474;28;20052;-69
2022/03/23 08:25:08;;;;;;;121.25;46.85;;;10.50;99.90;;;;;;5049427;28;20476;-68
2022/03/23 08:27:34;;;;;;;123.18;46.63;;;10.60;99.90;;;;;;5048171;28;20037;-69
2022/03/23 08:29:59;;;;;;;120.30;45.88;;;10.80;99.90;;;;;;5032878;28;20049;-70
2022/03/23 08:32:26;;;;;;;120.32;47.20;;;10.90;99.90;;;;;;5062286;28;20056;-69
2022/03/23 08:34:52;;;;;;;116.15;45.58;;;11.00;99.90;;;;;;5047771;28;20048;-69
2022/03/23 08:37:18;;;;;;;114.40;44.90;;;11.20;99.90;;;;;;5048538;28;20463;-69
2022/03/23 08:39:43;;;;;;;107.40;44.58;;;11.30;99.90;;;;;;5048111;28;20420;-69
2022/03/23 08:42:09;;;;;;;109.13;45.08;;;11.50;99.90;;;;;;5050226;28;20041;-70
2022/03/23 08:44:34;;;;;;;109.95;44.67;;;11.60;99.90;;;;;;5055281;28;20052;-70
2022/03/23 08:47:00;;;;;;;105.47;43.08;;;11.70;99.90;;;;;;5048518;28;20490;-71
2022/03/23 08:49:28;;;;;;;106.03;45.00;;;11.90;99.90;;;;;;5041584;28;20026;-70
2022/03/23 08:51:53;;;;;;;108.22;44.17;;;12.00;99.90;;;;;;5050000;28;20037;-70
2022/03/23 08:54:19;;;;;;;108.18;44.85;;;12.10;99.90;;;;;;5050097;28;20120;-69
2022/03/23 08:56:44;;;;;;;97.93;42.78;;;12.30;99.90;;;;;;5049733;28;20502;-70
2022/03/23 08:59:10;;;;;;;99.07;42.97;;;12.40;99.90;;;;;;5033414;28;20045;-70
2022/03/23 09:01:35;;;;;;;101.75;44.70;;;12.50;99.90;;;;;;5049591;28;20052;-70
2022/03/23 09:04:04;;;;;;;97.28;41.85;;;12.60;99.90;;;;;;5048512;28;20107;-70
2022/03/23 09:06:29;;;;;;;94.13;41.92;;;12.70;99.90;;;;;;5051318;28;20211;-70
2022/03/23 09:08:55;;;;;;;97.15;41.53;;;12.90;99.90;;;;;;5053977;28;20566;-68
2022/03/23 09:11:22;;;;;;;96.65;41.05;;;13.00;99.90;;;;;;5053353;28;20029;-69
2022/03/23 09:13:50;;;;;;;92.95;41.60;;;13.10;99.90;;;;;;5053317;28;20049;-70
2022/03/23 09:16:16;;;;;;;88.50;39.58;;;13.20;99.90;;;;;;5052872;28;20091;-70
2022/03/23 09:18:41;;;;;;;92.63;41.80;;;13.30;99.90;;;;;;5053529;28;20052;-70
2022/03/23 09:21:07;;;;;;;91.57;40.78;;;13.40;99.90;;;;;;5053200;28;20048;-70
2022/03/23 09:23:32;;;;;;;88.30;38.35;;;13.50;99.90;;;;;;5053118;28;20507;-69
2022/03/23 09:26:00;;;;;;;80.35;37.75;;;13.60;99.90;;;;;;5053814;28;20120;-70
2022/03/23 09:28:26;;;;;;;84.40;37.15;;;13.70;99.90;;;;;;5053706;28;20476;-69
2022/03/23 09:30:51;;;;;;;81.45;37.50;;;13.80;99.90;;;;;;5052606;28;20045;-69
2022/03/23 09:33:17;;;;;;;76.20;36.85;;;13.90;99.90;;;;;;5053776;28;20090;-69
2022/03/23 09:35:42;;;;;;;77.43;35.80;;;14.00;97.40;;;;;;5054080;28;20443;-71
2022/03/23 09:38:08;;;;;;;74.63;36.42;;;14.10;98.40;;;;;;5050884;28;20054;-70
2022/03/23 09:40:34;;;;;;;73.95;35.97;;;14.10;96.70;;;;;;5053377;28;20484;-69
2022/03/23 09:43:11;;;;;;;74.28;34.90;;;14.30;98.00;;;;;;5053798;28;20120;-69
2022/03/23 09:48:09;;;;;;;66.57;33.83;;;14.50;97.20;;;;;;5053766;28;20452;-69
2022/03/23 09:50:41;;;;;;;69.57;33.60;;;14.60;92.90;;;;;;5053777;28;20091;-69
2022/03/23 09:53:07;;;;;;;65.45;33.58;;;14.70;82.80;;;;;;5053335;28;20025;-69
2022/03/23 09:55:33;;;;;;;62.72;33.25;;;14.80;79.80;;;;;;5052799;28;20088;-70
2022/03/23 09:58:02;;;;;;;71.18;33.60;;;14.90;76.20;;;;;;5052530;28;20045;-68
2022/03/23 10:00:37;;;;;;;69.10;33.47;;;15.00;72.00;;;;;;5062763;28;20121;-69
2022/03/23 10:03:12;;;;;;;73.57;33.45;;;15.10;69.40;;;;;;5026371;28;20037;-68
2022/03/23 10:05:53;;;;;;;66.05;34.85;;;15.10;57.90;;;;;;5052356;28;20049;-69
2022/03/23 10:08:57;;;;;;;65.72;33.90;;;15.30;62.00;;;;;;5052273;28;20052;-68
2022/03/23 10:12:00;;;;;;;62.00;32.40;;;15.30;55.60;;;;;;5045348;28;20041;-68
2022/03/23 10:14:44;;;;;;;60.53;30.98;;;15.40;56.10;;;;;;5033270;28;20396;-69
2022/03/23 10:17:32;;;;;;;67.65;32.58;;;15.50;57.30;;;;;;5039704;28;20037;-68
2022/03/23 10:20:00;;;;;;;67.80;31.70;;;15.60;54.90;;;;;;5052730;28;20090;-68
2022/03/23 10:22:28;;;;;;;62.10;30.73;;;15.60;56.10;;;;;;5052366;28;20507;-67
2022/03/23 10:24:53;;;;;;;62.28;30.80;;;15.60;54.50;;;;;;5052340;28;20044;-68
2022/03/23 10:27:22;;;;;;;59.15;30.42;;;15.70;55.00;;;;;;5052276;28;20139;-69
2022/03/23 10:29:52;;;;;;;57.13;30.52;;;15.80;55.30;;;;;;5052237;28;20060;-68
2022/03/23 10:32:20;;;;;;;61.97;30.88;;;15.90;54.10;;;;;;5051873;28;20041;-69
2022/03/23 10:34:53;;;;;;;59.50;29.48;;;15.90;54.10;;;;;;5053219;28;20057;-68
2022/03/23 10:37:28;;;;;;;55.90;28.05;;;16.00;53.30;;;;;;5052268;28;20507;-68
2022/03/23 10:39:55;;;;;;;59.67;30.00;;;16.00;54.30;;;;;;5042452;28;20051;-69
2022/03/23 10:42:23;;;;;;;53.45;27.35;;;16.20;54.00;;;;;;5071991;28;20116;-68
2022/03/23 10:44:49;;;;;;;47.75;25.75;;;16.20;53.20;;;;;;5057691;28;20492;-69
2022/03/23 10:47:41;;;;;;;57.55;28.70;;;16.30;53.30;;;;;;5051697;28;20037;-69
2022/03/23 10:50:11;;;;;;;55.53;28.50;;;16.40;51.30;;;;;;5048008;28;20049;-68
2022/03/23 10:53:07;;;;;;;52.90;27.08;;;16.40;51.50;;;;;;5051745;28;20305;-68
2022/03/23 10:55:38;;;;;;;51.95;26.30;;;16.40;50.20;;;;;;5051536;28;20132;-68
2022/03/23 10:58:04;;;;;;;52.92;26.92;;;16.50;51.00;;;;;;5051991;28;20040;-68
2022/03/23 11:00:39;;;;;;;58.88;27.30;;;16.60;51.60;;;;;;5051793;28;20045;-68
2022/03/23 11:03:09;;;;;;;54.00;27.52;;;16.70;51.80;;;;;;5052283;28;20037;-69
2022/03/23 11:05:37;;;;;;;54.75;26.50;;;16.80;51.90;;;;;;5065703;28;20044;-68
2022/03/23 11:08:14;;;;;;;55.78;26.77;;;16.90;52.00;;;;;;5067252;28;20442;-69
2022/03/23 11:16:25;;;;;;;50.45;25.08;;;17.00;49.70;;;;;;5039278;28;20596;-67
2022/03/23 11:19:09;;;;;;;52.47;24.33;;;17.10;49.40;;;;;;5061084;28;20115;-69
2022/03/23 11:22:01;;;;;;;54.70;26.50;;;17.10;49.00;;;;;;5050762;28;20111;-69
2022/03/23 11:24:29;;;;;;;50.00;24.67;;;17.20;49.90;;;;;;5033972;28;20400;-69
2022/03/23 11:26:56;;;;;;;54.22;26.45;;;17.20;50.30;;;;;;5051023;28;20448;-68
2022/03/23 11:29:22;;;;;;;54.35;25.85;;;17.20;48.10;;;;;;5049405;28;20037;-68
2022/03/23 11:31:48;;;;;;;51.97;26.30;;;17.20;48.60;;;;;;5050538;28;20040;-69
2022/03/23 11:34:19;;;;;;;52.10;26.02;;;17.30;50.20;;;;;;5046992;28;20029;-68
2022/03/23 11:36:50;;;;;;;47.40;20.88;;;17.30;49.00;;;;;;5051317;28;20041;-68
2022/03/23 11:39:16;;;;;;;56.05;22.65;;;17.40;46.80;;;;;;5049988;28;20095;-68
2022/03/23 11:41:43;;;;;;;51.50;24.52;;;17.40;47.00;;;;;;5050406;28;20044;-69
2022/03/23 11:44:15;;;;;;;52.33;23.90;;;17.40;46.80;;;;;;5050923;28;20045;-69
2022/03/23 11:46:41;;;;;;;45.58;20.85;;;17.50;47.10;;;;;;5050825;28;20044;-69
2022/03/23 11:49:27;;;;;;;44.40;23.05;;;17.50;46.80;;;;;;5046881;28;20041;-68
2022/03/23 11:52:22;;;;;;;49.95;23.98;;;17.60;46.90;;;;;;5031854;28;20045;-67
2022/03/23 11:57:54;;;;;;;47.33;22.52;;;17.70;47.40;;;;;;5045459;28;20549;-68
2022/03/23 12:00:28;;;;;;;45.50;19.05;;;17.80;47.60;;;;;;5056840;28;20053;-68
2022/03/23 12:02:57;;;;;;;47.58;20.25;;;17.80;46.30;;;;;;5046880;28;20040;-68
2022/03/23 12:05:28;;;;;;;43.47;18.58;;;17.90;42.60;;;;;;5046394;28;20041;-68
2022/03/23 12:07:54;;;;;;;48.60;19.98;;;17.90;42.30;;;;;;5042180;28;20029;-67
2022/03/23 12:10:32;;;;;;;41.63;18.95;;;17.90;42.60;;;;;;5048446;28;20040;-68
2022/03/23 12:13:17;;;;;;;42.88;20.55;;;17.90;44.10;;;;;;5057464;28;20044;-67
2022/03/23 12:16:01;;;;;;;47.85;20.52;;;17.90;43.70;;;;;;5068621;28;20052;-68
2022/03/23 12:18:38;;;;;;;38.05;19.33;;;17.90;45.00;;;;;;5033352;28;20052;-68
2022/03/23 12:21:10;;;;;;;45.42;19.90;;;18.00;45.00;;;;;;5049251;28;20103;-66
2022/03/23 12:23:53;;;;;;;38.60;19.65;;;18.00;45.30;;;;;;5048358;28;20045;-67
2022/03/23 12:26:34;;;;;;;42.17;17.60;;;18.10;46.00;;;;;;5051413;28;20124;-67
2022/03/23 12:29:12;;;;;;;43.30;16.30;;;18.10;46.30;;;;;;5049900;28;20403;-67
2022/03/23 12:31:39;;;;;;;39.22;16.48;;;18.20;46.50;;;;;;5060146;28;20372;-68
2022/03/23 12:34:06;;;;;;;49.33;16.27;;;18.20;46.90;;;;;;5066407;28;20032;-68
2022/03/23 12:39:28;;;;;;;41.90;15.88;;;18.30;46.20;;;;;;5059701;28;20049;-67
2022/03/23 12:41:55;;;;;;;39.97;14.77;;;18.30;45.90;;;;;;5046915;28;20037;-67
2022/03/23 12:44:29;;;;;;;46.63;14.93;;;18.40;45.20;;;;;;5049719;28;20143;-67
2022/03/23 12:46:54;;;;;;;35.33;13.38;;;18.40;44.00;;;;;;5054438;28;20033;-67
2022/03/23 12:57:52;;;;;;;36.60;15.50;;;18.40;42.70;;;;;;5049717;28;20506;-67
2022/03/23 13:00:38;;;;;;;40.10;14.85;;;18.60;39.90;;;;;;5050146;28;20415;-66
2022/03/23 13:03:06;;;;;;;43.13;15.43;;;18.50;43.00;;;;;;5050709;28;20455;-67
2022/03/23 13:05:33;;;;;;;35.75;16.20;;;18.50;43.70;;;;;;5047568;28;20037;-67
2022/03/23 13:08:52;;;;;;;40.92;17.05;;;18.50;42.40;;;;;;5051568;28;20056;-67
2022/03/23 13:11:22;;;;;;;46.72;15.95;;;18.50;42.60;;;;;;5052542;28;20040;-66
2022/03/23 13:13:51;;;;;;;35.33;15.57;;;18.60;43.70;;;;;;5052209;28;20048;-67